sensor_id;sensor_type;location;lat;lon;timestamp;temperature;humidity
7192;DHT22;3637;51.494;11.958;2022-08-01T00:00:52;20.40;96.60
7192;DHT22;3637;51.494;11.958;2022-08-01T00:03:54;20.40;96.70
7192;DHT22;3637;51.494;11.958;2022-08-01T00:06:57;20.40;96.80
7192;DHT22;3637;51.494;11.958;2022-08-01T00:09:59;20.50;96.90
7192;DHT22;3637;51.494;11.958;2022-08-01T00:13:01;20.40;96.60
7192;DHT22;3637;51.494;11.958;2022-08-01T00:16:03;20.40;96.60
7192;DHT22;3637;51.494;11.958;2022-08-01T00:19:05;20.30;96.60
7192;DHT22;3637;51.494;11.958;2022-08-01T00:22:08;20.30;96.60
7192;DHT22;3637;51.494;11.958;2022-08-01T00:25:10;20.40;96.20
7192;DHT22;3637;51.494;11.958;2022-08-01T00:28:12;20.30;96.10
7192;DHT22;3637;51.494;11.958;2022-08-01T00:31:14;20.30;96.20
7192;DHT22;3637;51.494;11.958;2022-08-01T00:34:16;20.30;95.80
7192;DHT22;3637;51.494;11.958;2022-08-01T00:37:19;20.30;95.70
7192;DHT22;3637;51.494;11.958;2022-08-01T00:40:21;20.30;95.80
7192;DHT22;3637;51.494;11.958;2022-08-01T00:43:23;20.30;95.40
7192;DHT22;3637;51.494;11.958;2022-08-01T00:46:25;20.30;95.50
7192;DHT22;3637;51.494;11.958;2022-08-01T00:49:27;20.40;95.40
7192;DHT22;3637;51.494;11.958;2022-08-01T00:52:30;20.30;95.60
7192;DHT22;3637;51.494;11.958;2022-08-01T00:55:32;20.30;95.90
7192;DHT22;3637;51.494;11.958;2022-08-01T00:58:34;20.30;96.10
7192;DHT22;3637;51.494;11.958;2022-08-01T01:01:36;20.30;95.90
7192;DHT22;3637;51.494;11.958;2022-08-01T01:04:38;20.30;95.80
7192;DHT22;3637;51.494;11.958;2022-08-01T01:07:47;20.40;94.90
7192;DHT22;3637;51.494;11.958;2022-08-01T01:10:56;20.40;94.80
7192;DHT22;3637;51.494;11.958;2022-08-01T01:14:03;20.40;94.90
7192;DHT22;3637;51.494;11.958;2022-08-01T01:17:07;20.40;94.90
7192;DHT22;3637;51.494;11.958;2022-08-01T01:20:12;20.40;95.20
7192;DHT22;3637;51.494;11.958;2022-08-01T01:23:31;20.30;95.40
7192;DHT22;3637;51.494;11.958;2022-08-01T01:26:40;20.30;95.50
7192;DHT22;3637;51.494;11.958;2022-08-01T01:29:49;20.30;95.30
7192;DHT22;3637;51.494;11.958;2022-08-01T01:32:52;20.30;95.20
7192;DHT22;3637;51.494;11.958;2022-08-01T01:35:59;20.20;95.20
7192;DHT22;3637;51.494;11.958;2022-08-01T01:39:02;20.20;95.50
7192;DHT22;3637;51.494;11.958;2022-08-01T01:42:05;20.20;95.50
7192;DHT22;3637;51.494;11.958;2022-08-01T01:45:09;20.10;95.90
7192;DHT22;3637;51.494;11.958;2022-08-01T01:48:15;20.10;95.70
7192;DHT22;3637;51.494;11.958;2022-08-01T01:51:21;20.10;95.50
7192;DHT22;3637;51.494;11.958;2022-08-01T01:54:28;20.10;95.20
7192;DHT22;3637;51.494;11.958;2022-08-01T01:57:32;20.10;95.40
7192;DHT22;3637;51.494;11.958;2022-08-01T02:00:39;20.10;95.00
7192;DHT22;3637;51.494;11.958;2022-08-01T02:03:42;20.10;94.90
7192;DHT22;3637;51.494;11.958;2022-08-01T02:06:45;20.10;95.10
7192;DHT22;3637;51.494;11.958;2022-08-01T02:09:48;20.10;95.20
7192;DHT22;3637;51.494;11.958;2022-08-01T02:12:50;20.10;95.30
7192;DHT22;3637;51.494;11.958;2022-08-01T02:15:54;20.10;95.50
7192;DHT22;3637;51.494;11.958;2022-08-01T02:18:56;20.10;95.70
7192;DHT22;3637;51.494;11.958;2022-08-01T02:22:01;20.10;95.70
7192;DHT22;3637;51.494;11.958;2022-08-01T02:25:10;20.10;95.60
7192;DHT22;3637;51.494;11.958;2022-08-01T02:28:16;20.00;95.50
7192;DHT22;3637;51.494;11.958;2022-08-01T02:31:21;20.00;95.50
7192;DHT22;3637;51.494;11.958;2022-08-01T02:34:25;20.10;95.40
7192;DHT22;3637;51.494;11.958;2022-08-01T02:37:34;20.10;95.50
7192;DHT22;3637;51.494;11.958;2022-08-01T02:40:40;20.00;95.60
7192;DHT22;3637;51.494;11.958;2022-08-01T02:43:46;20.10;95.70
7192;DHT22;3637;51.494;11.958;2022-08-01T02:46:54;20.10;95.80
7192;DHT22;3637;51.494;11.958;2022-08-01T02:49:59;20.10;95.70
7192;DHT22;3637;51.494;11.958;2022-08-01T02:53:02;20.10;95.60
7192;DHT22;3637;51.494;11.958;2022-08-01T02:56:06;20.10;95.60
7192;DHT22;3637;51.494;11.958;2022-08-01T02:59:12;20.20;95.70
7192;DHT22;3637;51.494;11.958;2022-08-01T03:02:17;20.20;95.70
7192;DHT22;3637;51.494;11.958;2022-08-01T03:05:19;20.10;95.70
7192;DHT22;3637;51.494;11.958;2022-08-01T03:08:23;20.10;95.70
7192;DHT22;3637;51.494;11.958;2022-08-01T03:11:27;20.10;95.70
7192;DHT22;3637;51.494;11.958;2022-08-01T03:14:29;20.10;95.70
7192;DHT22;3637;51.494;11.958;2022-08-01T03:17:36;20.20;95.70
7192;DHT22;3637;51.494;11.958;2022-08-01T03:20:40;20.20;95.70
7192;DHT22;3637;51.494;11.958;2022-08-01T03:23:43;20.10;95.80
7192;DHT22;3637;51.494;11.958;2022-08-01T03:26:47;20.20;95.80
7192;DHT22;3637;51.494;11.958;2022-08-01T03:29:51;20.10;96.00
7192;DHT22;3637;51.494;11.958;2022-08-01T03:32:54;20.10;96.10
7192;DHT22;3637;51.494;11.958;2022-08-01T03:36:00;20.10;96.10
7192;DHT22;3637;51.494;11.958;2022-08-01T03:39:05;20.10;96.10
7192;DHT22;3637;51.494;11.958;2022-08-01T03:42:12;20.10;96.50
7192;DHT22;3637;51.494;11.958;2022-08-01T03:45:19;20.10;96.60
7192;DHT22;3637;51.494;11.958;2022-08-01T03:48:28;20.10;97.00
7192;DHT22;3637;51.494;11.958;2022-08-01T03:51:32;20.10;97.10
7192;DHT22;3637;51.494;11.958;2022-08-01T03:54:36;20.10;97.00
7192;DHT22;3637;51.494;11.958;2022-08-01T03:57:39;20.00;97.20
7192;DHT22;3637;51.494;11.958;2022-08-01T04:00:41;20.00;97.10
7192;DHT22;3637;51.494;11.958;2022-08-01T04:03:46;20.00;97.20
7192;DHT22;3637;51.494;11.958;2022-08-01T04:06:48;20.00;97.00
7192;DHT22;3637;51.494;11.958;2022-08-01T04:09:54;20.10;97.10
7192;DHT22;3637;51.494;11.958;2022-08-01T04:12:56;20.10;97.00
7192;DHT22;3637;51.494;11.958;2022-08-01T04:15:58;20.10;97.10
7192;DHT22;3637;51.494;11.958;2022-08-01T04:19:01;20.10;96.90
7192;DHT22;3637;51.494;11.958;2022-08-01T04:22:04;20.10;97.20
7192;DHT22;3637;51.494;11.958;2022-08-01T04:25:11;20.10;97.10
7192;DHT22;3637;51.494;11.958;2022-08-01T04:28:14;20.20;97.00
7192;DHT22;3637;51.494;11.958;2022-08-01T04:31:18;20.20;97.00
7192;DHT22;3637;51.494;11.958;2022-08-01T04:34:23;20.20;97.10
7192;DHT22;3637;51.494;11.958;2022-08-01T04:37:28;20.20;97.10
7192;DHT22;3637;51.494;11.958;2022-08-01T04:40:30;20.20;96.90
7192;DHT22;3637;51.494;11.958;2022-08-01T04:43:33;20.20;97.00
7192;DHT22;3637;51.494;11.958;2022-08-01T04:46:36;20.30;97.00
7192;DHT22;3637;51.494;11.958;2022-08-01T04:49:40;20.20;97.00
7192;DHT22;3637;51.494;11.958;2022-08-01T04:52:42;20.30;96.80
7192;DHT22;3637;51.494;11.958;2022-08-01T04:55:44;20.30;96.90
7192;DHT22;3637;51.494;11.958;2022-08-01T04:58:47;20.30;96.90
7192;DHT22;3637;51.494;11.958;2022-08-01T05:02:11;20.30;96.90
7192;DHT22;3637;51.494;11.958;2022-08-01T05:05:14;20.40;96.90
7192;DHT22;3637;51.494;11.958;2022-08-01T05:08:16;20.40;96.80
7192;DHT22;3637;51.494;11.958;2022-08-01T05:11:18;20.50;96.70
7192;DHT22;3637;51.494;11.958;2022-08-01T05:14:20;20.60;96.60
7192;DHT22;3637;51.494;11.958;2022-08-01T05:17:22;20.60;96.60
7192;DHT22;3637;51.494;11.958;2022-08-01T05:20:25;20.60;96.60
7192;DHT22;3637;51.494;11.958;2022-08-01T05:23:27;20.60;96.60
7192;DHT22;3637;51.494;11.958;2022-08-01T05:26:29;20.60;96.50
7192;DHT22;3637;51.494;11.958;2022-08-01T05:29:31;20.60;96.50
7192;DHT22;3637;51.494;11.958;2022-08-01T05:32:33;20.70;96.40
7192;DHT22;3637;51.494;11.958;2022-08-01T05:35:36;20.70;96.50
7192;DHT22;3637;51.494;11.958;2022-08-01T05:38:39;20.70;96.60
7192;DHT22;3637;51.494;11.958;2022-08-01T05:41:41;20.70;96.60
7192;DHT22;3637;51.494;11.958;2022-08-01T05:44:43;20.70;96.60
7192;DHT22;3637;51.494;11.958;2022-08-01T05:47:45;20.70;96.50
7192;DHT22;3637;51.494;11.958;2022-08-01T05:50:48;20.70;96.50
7192;DHT22;3637;51.494;11.958;2022-08-01T05:53:51;20.90;96.40
7192;DHT22;3637;51.494;11.958;2022-08-01T05:56:55;20.90;96.50
7192;DHT22;3637;51.494;11.958;2022-08-01T06:00:00;21.00;96.30
7192;DHT22;3637;51.494;11.958;2022-08-01T06:03:02;21.00;96.20
7192;DHT22;3637;51.494;11.958;2022-08-01T06:06:05;21.00;96.20
7192;DHT22;3637;51.494;11.958;2022-08-01T06:09:07;21.00;96.10
7192;DHT22;3637;51.494;11.958;2022-08-01T06:12:09;21.00;95.80
7192;DHT22;3637;51.494;11.958;2022-08-01T06:15:11;21.00;95.80
7192;DHT22;3637;51.494;11.958;2022-08-01T06:18:13;21.00;96.00
7192;DHT22;3637;51.494;11.958;2022-08-01T06:21:16;21.00;96.10
7192;DHT22;3637;51.494;11.958;2022-08-01T06:24:18;21.10;96.20
7192;DHT22;3637;51.494;11.958;2022-08-01T06:27:20;21.10;96.20
7192;DHT22;3637;51.494;11.958;2022-08-01T06:30:23;21.20;96.20
7192;DHT22;3637;51.494;11.958;2022-08-01T06:33:25;21.20;96.10
7192;DHT22;3637;51.494;11.958;2022-08-01T06:36:28;21.20;95.90
7192;DHT22;3637;51.494;11.958;2022-08-01T06:39:30;21.20;95.80
7192;DHT22;3637;51.494;11.958;2022-08-01T06:42:32;21.20;95.60
7192;DHT22;3637;51.494;11.958;2022-08-01T06:45:36;21.20;95.70
7192;DHT22;3637;51.494;11.958;2022-08-01T06:48:37;21.10;96.40
7192;DHT22;3637;51.494;11.958;2022-08-01T06:51:41;21.10;96.40
7192;DHT22;3637;51.494;11.958;2022-08-01T06:54:43;21.00;97.00
7192;DHT22;3637;51.494;11.958;2022-08-01T06:57:46;20.80;98.30
7192;DHT22;3637;51.494;11.958;2022-08-01T07:00:48;20.70;97.90
7192;DHT22;3637;51.494;11.958;2022-08-01T07:03:49;20.80;97.90
7192;DHT22;3637;51.494;11.958;2022-08-01T07:06:54;20.70;98.10
7192;DHT22;3637;51.494;11.958;2022-08-01T07:09:56;20.70;97.90
7192;DHT22;3637;51.494;11.958;2022-08-01T07:12:58;20.70;97.50
7192;DHT22;3637;51.494;11.958;2022-08-01T07:16:00;20.70;97.50
7192;DHT22;3637;51.494;11.958;2022-08-01T07:19:02;20.60;97.70
7192;DHT22;3637;51.494;11.958;2022-08-01T07:22:11;20.70;97.50
7192;DHT22;3637;51.494;11.958;2022-08-01T07:25:14;20.80;97.00
7192;DHT22;3637;51.494;11.958;2022-08-01T07:28:19;20.80;96.70
7192;DHT22;3637;51.494;11.958;2022-08-01T07:31:20;20.80;96.20
7192;DHT22;3637;51.494;11.958;2022-08-01T07:34:24;20.90;96.10
7192;DHT22;3637;51.494;11.958;2022-08-01T07:37:27;21.00;95.40
7192;DHT22;3637;51.494;11.958;2022-08-01T07:40:29;21.00;95.10
7192;DHT22;3637;51.494;11.958;2022-08-01T07:43:31;21.20;95.50
7192;DHT22;3637;51.494;11.958;2022-08-01T07:46:33;21.40;94.50
7192;DHT22;3637;51.494;11.958;2022-08-01T07:49:35;21.40;94.90
7192;DHT22;3637;51.494;11.958;2022-08-01T07:52:38;21.40;94.00
7192;DHT22;3637;51.494;11.958;2022-08-01T07:55:40;21.50;93.80
7192;DHT22;3637;51.494;11.958;2022-08-01T07:58:42;21.50;93.90
7192;DHT22;3637;51.494;11.958;2022-08-01T08:01:44;21.50;93.60
7192;DHT22;3637;51.494;11.958;2022-08-01T08:04:46;21.60;93.40
7192;DHT22;3637;51.494;11.958;2022-08-01T08:07:49;21.50;92.90
7192;DHT22;3637;51.494;11.958;2022-08-01T08:10:51;21.60;93.00
7192;DHT22;3637;51.494;11.958;2022-08-01T08:13:53;21.60;93.10
7192;DHT22;3637;51.494;11.958;2022-08-01T08:16:54;21.40;93.00
7192;DHT22;3637;51.494;11.958;2022-08-01T08:19:56;21.30;92.80
7192;DHT22;3637;51.494;11.958;2022-08-01T08:23:00;21.40;92.90
7192;DHT22;3637;51.494;11.958;2022-08-01T08:26:02;21.40;93.60
7192;DHT22;3637;51.494;11.958;2022-08-01T08:29:04;21.40;93.70
7192;DHT22;3637;51.494;11.958;2022-08-01T08:32:06;21.60;93.30
7192;DHT22;3637;51.494;11.958;2022-08-01T08:35:09;21.40;93.70
7192;DHT22;3637;51.494;11.958;2022-08-01T08:38:12;21.50;93.50
7192;DHT22;3637;51.494;11.958;2022-08-01T08:41:14;21.40;93.20
7192;DHT22;3637;51.494;11.958;2022-08-01T08:44:17;21.20;93.50
7192;DHT22;3637;51.494;11.958;2022-08-01T08:47:21;21.30;93.30
7192;DHT22;3637;51.494;11.958;2022-08-01T08:50:23;21.40;93.00
7192;DHT22;3637;51.494;11.958;2022-08-01T08:53:27;21.50;92.90
7192;DHT22;3637;51.494;11.958;2022-08-01T08:56:31;21.70;93.10
7192;DHT22;3637;51.494;11.958;2022-08-01T08:59:34;21.80;92.40
7192;DHT22;3637;51.494;11.958;2022-08-01T09:02:38;22.00;92.00
7192;DHT22;3637;51.494;11.958;2022-08-01T09:05:41;22.10;91.10
7192;DHT22;3637;51.494;11.958;2022-08-01T09:08:46;22.10;91.40
7192;DHT22;3637;51.494;11.958;2022-08-01T09:11:48;22.10;91.60
7192;DHT22;3637;51.494;11.958;2022-08-01T09:14:50;22.10;91.10
7192;DHT22;3637;51.494;11.958;2022-08-01T09:17:53;22.10;91.30
7192;DHT22;3637;51.494;11.958;2022-08-01T09:21:08;22.30;91.50
7192;DHT22;3637;51.494;11.958;2022-08-01T09:24:15;22.30;90.00
7192;DHT22;3637;51.494;11.958;2022-08-01T09:27:19;22.40;90.20
7192;DHT22;3637;51.494;11.958;2022-08-01T09:30:23;22.30;88.60
7192;DHT22;3637;51.494;11.958;2022-08-01T09:33:25;22.40;87.30
7192;DHT22;3637;51.494;11.958;2022-08-01T09:36:49;22.50;87.50
7192;DHT22;3637;51.494;11.958;2022-08-01T09:39:56;22.60;86.10
7192;DHT22;3637;51.494;11.958;2022-08-01T09:43:10;22.50;85.60
7192;DHT22;3637;51.494;11.958;2022-08-01T09:46:12;22.60;85.90
7192;DHT22;3637;51.494;11.958;2022-08-01T09:49:14;22.80;85.50
7192;DHT22;3637;51.494;11.958;2022-08-01T09:52:17;22.90;82.80
7192;DHT22;3637;51.494;11.958;2022-08-01T09:55:22;23.00;83.10
7192;DHT22;3637;51.494;11.958;2022-08-01T09:58:24;23.00;82.00
7192;DHT22;3637;51.494;11.958;2022-08-01T10:01:27;23.20;81.90
7192;DHT22;3637;51.494;11.958;2022-08-01T10:04:29;23.20;82.60
7192;DHT22;3637;51.494;11.958;2022-08-01T10:07:31;23.40;82.20
7192;DHT22;3637;51.494;11.958;2022-08-01T10:10:34;23.40;82.70
7192;DHT22;3637;51.494;11.958;2022-08-01T10:13:36;23.30;81.90
7192;DHT22;3637;51.494;11.958;2022-08-01T10:16:39;23.30;82.20
7192;DHT22;3637;51.494;11.958;2022-08-01T10:19:42;23.30;81.20
7192;DHT22;3637;51.494;11.958;2022-08-01T10:22:44;23.20;81.70
7192;DHT22;3637;51.494;11.958;2022-08-01T10:25:48;23.20;82.50
7192;DHT22;3637;51.494;11.958;2022-08-01T10:28:51;23.20;83.10
7192;DHT22;3637;51.494;11.958;2022-08-01T10:31:54;23.30;82.30
7192;DHT22;3637;51.494;11.958;2022-08-01T10:34:56;23.50;79.60
7192;DHT22;3637;51.494;11.958;2022-08-01T10:37:58;23.40;80.10
7192;DHT22;3637;51.494;11.958;2022-08-01T10:41:02;23.30;80.60
7192;DHT22;3637;51.494;11.958;2022-08-01T10:44:06;23.30;80.80
7192;DHT22;3637;51.494;11.958;2022-08-01T10:47:10;23.20;80.00
7192;DHT22;3637;51.494;11.958;2022-08-01T10:50:17;23.40;80.60
7192;DHT22;3637;51.494;11.958;2022-08-01T10:53:21;23.50;81.20
7192;DHT22;3637;51.494;11.958;2022-08-01T10:56:37;23.60;81.20
7192;DHT22;3637;51.494;11.958;2022-08-01T10:59:48;23.60;81.30
7192;DHT22;3637;51.494;11.958;2022-08-01T11:02:58;23.80;79.90
7192;DHT22;3637;51.494;11.958;2022-08-01T11:06:02;23.80;78.30
7192;DHT22;3637;51.494;11.958;2022-08-01T11:09:19;23.80;79.70
7192;DHT22;3637;51.494;11.958;2022-08-01T11:12:38;23.70;79.90
7192;DHT22;3637;51.494;11.958;2022-08-01T11:15:41;23.70;81.30
7192;DHT22;3637;51.494;11.958;2022-08-01T11:18:50;23.70;82.20
7192;DHT22;3637;51.494;11.958;2022-08-01T11:21:58;23.60;83.80
7192;DHT22;3637;51.494;11.958;2022-08-01T11:25:05;23.60;83.10
7192;DHT22;3637;51.494;11.958;2022-08-01T11:28:20;23.60;82.70
7192;DHT22;3637;51.494;11.958;2022-08-01T11:31:29;23.60;81.60
7192;DHT22;3637;51.494;11.958;2022-08-01T11:34:51;23.60;82.20
7192;DHT22;3637;51.494;11.958;2022-08-01T11:37:54;23.70;81.70
7192;DHT22;3637;51.494;11.958;2022-08-01T11:41:09;23.80;80.80
7192;DHT22;3637;51.494;11.958;2022-08-01T11:44:16;23.70;80.00
7192;DHT22;3637;51.494;11.958;2022-08-01T11:47:18;23.70;79.90
7192;DHT22;3637;51.494;11.958;2022-08-01T11:50:41;23.80;79.30
7192;DHT22;3637;51.494;11.958;2022-08-01T11:53:45;23.60;79.90
7192;DHT22;3637;51.494;11.958;2022-08-01T11:56:47;23.70;80.40
7192;DHT22;3637;51.494;11.958;2022-08-01T11:59:52;23.70;81.10
7192;DHT22;3637;51.494;11.958;2022-08-01T12:02:58;23.80;79.70
7192;DHT22;3637;51.494;11.958;2022-08-01T12:06:00;23.90;79.40
7192;DHT22;3637;51.494;11.958;2022-08-01T12:09:15;23.90;80.10
7192;DHT22;3637;51.494;11.958;2022-08-01T12:12:17;24.00;79.90
7192;DHT22;3637;51.494;11.958;2022-08-01T12:15:22;24.00;79.60
7192;DHT22;3637;51.494;11.958;2022-08-01T12:18:24;24.10;80.30
7192;DHT22;3637;51.494;11.958;2022-08-01T12:21:27;24.30;80.00
7192;DHT22;3637;51.494;11.958;2022-08-01T12:24:29;24.30;79.00
7192;DHT22;3637;51.494;11.958;2022-08-01T12:27:31;24.30;78.70
7192;DHT22;3637;51.494;11.958;2022-08-01T12:30:35;24.20;78.00
7192;DHT22;3637;51.494;11.958;2022-08-01T12:33:37;24.10;77.30
7192;DHT22;3637;51.494;11.958;2022-08-01T12:36:39;24.10;78.40
7192;DHT22;3637;51.494;11.958;2022-08-01T12:39:41;24.20;78.10
7192;DHT22;3637;51.494;11.958;2022-08-01T12:42:45;24.30;78.50
7192;DHT22;3637;51.494;11.958;2022-08-01T12:45:50;24.30;78.90
7192;DHT22;3637;51.494;11.958;2022-08-01T12:48:52;24.40;77.50
7192;DHT22;3637;51.494;11.958;2022-08-01T12:51:55;24.40;77.10
7192;DHT22;3637;51.494;11.958;2022-08-01T12:55:09;24.50;77.30
7192;DHT22;3637;51.494;11.958;2022-08-01T12:58:13;24.60;76.60
7192;DHT22;3637;51.494;11.958;2022-08-01T13:01:25;24.60;74.90
7192;DHT22;3637;51.494;11.958;2022-08-01T13:04:28;24.50;75.50
7192;DHT22;3637;51.494;11.958;2022-08-01T13:07:38;24.50;76.30
7192;DHT22;3637;51.494;11.958;2022-08-01T13:10:40;24.40;76.40
7192;DHT22;3637;51.494;11.958;2022-08-01T13:13:43;24.30;76.80
7192;DHT22;3637;51.494;11.958;2022-08-01T13:16:48;24.30;75.90
7192;DHT22;3637;51.494;11.958;2022-08-01T13:19:50;24.20;77.30
7192;DHT22;3637;51.494;11.958;2022-08-01T13:22:53;24.20;77.10
7192;DHT22;3637;51.494;11.958;2022-08-01T13:25:55;24.10;76.90
7192;DHT22;3637;51.494;11.958;2022-08-01T13:29:04;24.10;76.90
7192;DHT22;3637;51.494;11.958;2022-08-01T13:32:14;24.10;77.20
7192;DHT22;3637;51.494;11.958;2022-08-01T13:35:20;24.00;77.40
7192;DHT22;3637;51.494;11.958;2022-08-01T13:38:22;24.10;77.80
7192;DHT22;3637;51.494;11.958;2022-08-01T13:41:44;24.10;78.40
7192;DHT22;3637;51.494;11.958;2022-08-01T13:44:46;24.00;77.80
7192;DHT22;3637;51.494;11.958;2022-08-01T13:47:50;24.00;77.60
7192;DHT22;3637;51.494;11.958;2022-08-01T13:50:51;23.90;77.80
7192;DHT22;3637;51.494;11.958;2022-08-01T13:53:53;23.90;76.70
7192;DHT22;3637;51.494;11.958;2022-08-01T13:56:55;23.80;77.70
7192;DHT22;3637;51.494;11.958;2022-08-01T13:59:57;23.90;77.80
7192;DHT22;3637;51.494;11.958;2022-08-01T14:03:01;24.00;77.80
7192;DHT22;3637;51.494;11.958;2022-08-01T14:06:04;24.10;77.40
7192;DHT22;3637;51.494;11.958;2022-08-01T14:09:06;24.20;75.80
7192;DHT22;3637;51.494;11.958;2022-08-01T14:12:08;24.30;75.60
7192;DHT22;3637;51.494;11.958;2022-08-01T14:15:10;24.50;75.70
7192;DHT22;3637;51.494;11.958;2022-08-01T14:18:13;24.50;73.80
7192;DHT22;3637;51.494;11.958;2022-08-01T14:21:15;24.70;73.50
7192;DHT22;3637;51.494;11.958;2022-08-01T14:24:17;24.70;72.10
7192;DHT22;3637;51.494;11.958;2022-08-01T14:27:19;24.70;71.60
7192;DHT22;3637;51.494;11.958;2022-08-01T14:30:21;24.70;71.90
7192;DHT22;3637;51.494;11.958;2022-08-01T14:33:24;24.70;71.80
7192;DHT22;3637;51.494;11.958;2022-08-01T14:36:26;24.90;71.40
7192;DHT22;3637;51.494;11.958;2022-08-01T14:39:28;24.90;71.40
7192;DHT22;3637;51.494;11.958;2022-08-01T14:42:30;24.90;71.10
7192;DHT22;3637;51.494;11.958;2022-08-01T14:45:32;24.90;70.10
7192;DHT22;3637;51.494;11.958;2022-08-01T14:48:35;24.80;70.10
7192;DHT22;3637;51.494;11.958;2022-08-01T14:51:37;24.70;71.40
7192;DHT22;3637;51.494;11.958;2022-08-01T14:54:40;24.80;71.60
7192;DHT22;3637;51.494;11.958;2022-08-01T14:57:41;24.90;71.90
7192;DHT22;3637;51.494;11.958;2022-08-01T15:00:43;25.10;71.80
7192;DHT22;3637;51.494;11.958;2022-08-01T15:03:47;25.10;71.60
7192;DHT22;3637;51.494;11.958;2022-08-01T15:06:50;25.10;70.50
7192;DHT22;3637;51.494;11.958;2022-08-01T15:09:52;25.10;71.30
7192;DHT22;3637;51.494;11.958;2022-08-01T15:12:54;25.10;72.40
7192;DHT22;3637;51.494;11.958;2022-08-01T15:15:56;25.10;72.20
7192;DHT22;3637;51.494;11.958;2022-08-01T15:19:00;25.10;72.10
7192;DHT22;3637;51.494;11.958;2022-08-01T15:22:02;25.10;71.90
7192;DHT22;3637;51.494;11.958;2022-08-01T15:25:05;25.10;71.00
7192;DHT22;3637;51.494;11.958;2022-08-01T15:28:07;25.20;71.80
7192;DHT22;3637;51.494;11.958;2022-08-01T15:31:09;25.30;69.50
7192;DHT22;3637;51.494;11.958;2022-08-01T15:34:13;25.30;69.30
7192;DHT22;3637;51.494;11.958;2022-08-01T15:37:15;25.30;67.90
7192;DHT22;3637;51.494;11.958;2022-08-01T15:40:17;25.30;68.80
7192;DHT22;3637;51.494;11.958;2022-08-01T15:43:19;25.30;69.50
7192;DHT22;3637;51.494;11.958;2022-08-01T15:46:21;25.20;70.50
7192;DHT22;3637;51.494;11.958;2022-08-01T15:49:24;25.30;69.90
7192;DHT22;3637;51.494;11.958;2022-08-01T15:52:26;25.30;69.90
7192;DHT22;3637;51.494;11.958;2022-08-01T15:55:28;25.40;70.30
7192;DHT22;3637;51.494;11.958;2022-08-01T15:58:29;25.50;69.80
7192;DHT22;3637;51.494;11.958;2022-08-01T16:01:32;25.50;69.00
7192;DHT22;3637;51.494;11.958;2022-08-01T16:04:35;25.40;68.30
7192;DHT22;3637;51.494;11.958;2022-08-01T16:07:37;25.40;68.20
7192;DHT22;3637;51.494;11.958;2022-08-01T16:10:39;25.30;67.30
7192;DHT22;3637;51.494;11.958;2022-08-01T16:13:41;25.40;67.40
7192;DHT22;3637;51.494;11.958;2022-08-01T16:16:43;25.40;67.30
7192;DHT22;3637;51.494;11.958;2022-08-01T16:19:46;25.30;67.70
7192;DHT22;3637;51.494;11.958;2022-08-01T16:22:50;25.30;68.10
7192;DHT22;3637;51.494;11.958;2022-08-01T16:25:52;25.30;68.40
7192;DHT22;3637;51.494;11.958;2022-08-01T16:28:54;25.30;68.60
7192;DHT22;3637;51.494;11.958;2022-08-01T16:31:57;25.30;68.30
7192;DHT22;3637;51.494;11.958;2022-08-01T16:35:00;25.20;67.90
7192;DHT22;3637;51.494;11.958;2022-08-01T16:38:02;25.10;68.00
7192;DHT22;3637;51.494;11.958;2022-08-01T16:41:05;24.90;69.30
7192;DHT22;3637;51.494;11.958;2022-08-01T16:44:07;24.90;69.00
7192;DHT22;3637;51.494;11.958;2022-08-01T16:47:10;24.80;69.10
7192;DHT22;3637;51.494;11.958;2022-08-01T16:50:14;24.80;69.40
7192;DHT22;3637;51.494;11.958;2022-08-01T16:53:16;24.70;69.70
7192;DHT22;3637;51.494;11.958;2022-08-01T16:56:18;24.70;69.70
7192;DHT22;3637;51.494;11.958;2022-08-01T16:59:20;24.60;70.60
7192;DHT22;3637;51.494;11.958;2022-08-01T17:02:22;24.60;69.40
7192;DHT22;3637;51.494;11.958;2022-08-01T17:05:26;24.50;70.60
7192;DHT22;3637;51.494;11.958;2022-08-01T17:08:30;24.40;70.00
7192;DHT22;3637;51.494;11.958;2022-08-01T17:11:32;24.30;69.40
7192;DHT22;3637;51.494;11.958;2022-08-01T17:14:34;24.30;70.00
7192;DHT22;3637;51.494;11.958;2022-08-01T17:17:39;24.30;69.70
7192;DHT22;3637;51.494;11.958;2022-08-01T17:20:42;24.20;69.80
7192;DHT22;3637;51.494;11.958;2022-08-01T17:23:44;24.20;69.30
7192;DHT22;3637;51.494;11.958;2022-08-01T17:26:46;24.10;69.50
7192;DHT22;3637;51.494;11.958;2022-08-01T17:29:48;24.20;69.50
7192;DHT22;3637;51.494;11.958;2022-08-01T17:32:50;24.10;69.00
7192;DHT22;3637;51.494;11.958;2022-08-01T17:35:53;24.10;69.00
7192;DHT22;3637;51.494;11.958;2022-08-01T17:38:56;24.00;68.70
7192;DHT22;3637;51.494;11.958;2022-08-01T17:41:59;24.10;68.80
7192;DHT22;3637;51.494;11.958;2022-08-01T17:45:01;24.00;69.20
7192;DHT22;3637;51.494;11.958;2022-08-01T17:48:03;23.90;69.50
7192;DHT22;3637;51.494;11.958;2022-08-01T17:51:07;23.90;70.40
7192;DHT22;3637;51.494;11.958;2022-08-01T17:54:09;23.90;70.30
7192;DHT22;3637;51.494;11.958;2022-08-01T17:57:10;23.80;70.70
7192;DHT22;3637;51.494;11.958;2022-08-01T18:00:13;23.70;71.30
7192;DHT22;3637;51.494;11.958;2022-08-01T18:03:15;23.70;71.70
7192;DHT22;3637;51.494;11.958;2022-08-01T18:06:19;23.70;70.80
7192;DHT22;3637;51.494;11.958;2022-08-01T18:09:22;23.60;70.70
7192;DHT22;3637;51.494;11.958;2022-08-01T18:12:24;23.50;70.80
7192;DHT22;3637;51.494;11.958;2022-08-01T18:15:26;23.40;71.00
7192;DHT22;3637;51.494;11.958;2022-08-01T18:18:28;23.40;71.00
7192;DHT22;3637;51.494;11.958;2022-08-01T18:21:31;23.30;71.30
7192;DHT22;3637;51.494;11.958;2022-08-01T18:24:34;23.40;71.10
7192;DHT22;3637;51.494;11.958;2022-08-01T18:27:36;23.30;71.50
7192;DHT22;3637;51.494;11.958;2022-08-01T18:30:38;23.20;71.50
7192;DHT22;3637;51.494;11.958;2022-08-01T18:33:40;23.20;71.50
7192;DHT22;3637;51.494;11.958;2022-08-01T18:36:43;23.20;71.40
7192;DHT22;3637;51.494;11.958;2022-08-01T18:39:45;23.10;71.90
7192;DHT22;3637;51.494;11.958;2022-08-01T18:42:47;23.10;72.00
7192;DHT22;3637;51.494;11.958;2022-08-01T18:45:49;23.10;72.10
7192;DHT22;3637;51.494;11.958;2022-08-01T18:48:51;23.10;72.10
7192;DHT22;3637;51.494;11.958;2022-08-01T18:51:54;23.10;72.40
7192;DHT22;3637;51.494;11.958;2022-08-01T18:54:58;23.10;72.30
7192;DHT22;3637;51.494;11.958;2022-08-01T18:57:59;23.00;72.40
7192;DHT22;3637;51.494;11.958;2022-08-01T19:01:01;23.00;72.40
7192;DHT22;3637;51.494;11.958;2022-08-01T19:04:03;22.90;72.90
7192;DHT22;3637;51.494;11.958;2022-08-01T19:07:07;22.90;73.00
7192;DHT22;3637;51.494;11.958;2022-08-01T19:10:09;22.90;73.20
7192;DHT22;3637;51.494;11.958;2022-08-01T19:13:11;22.80;73.40
7192;DHT22;3637;51.494;11.958;2022-08-01T19:16:14;22.80;73.60
7192;DHT22;3637;51.494;11.958;2022-08-01T19:19:16;22.70;73.80
7192;DHT22;3637;51.494;11.958;2022-08-01T19:22:21;22.60;73.90
7192;DHT22;3637;51.494;11.958;2022-08-01T19:25:22;22.50;74.20
7192;DHT22;3637;51.494;11.958;2022-08-01T19:28:25;22.50;74.30
7192;DHT22;3637;51.494;11.958;2022-08-01T19:31:28;22.40;74.40
7192;DHT22;3637;51.494;11.958;2022-08-01T19:34:33;22.40;74.60
7192;DHT22;3637;51.494;11.958;2022-08-01T19:37:38;22.40;74.40